Ely Municipal Airport
KELO : now visible

Airfield :











YOU CAN JOIN US ON...

 
LOGIN :

Register | Disclaimer

   EN    FR    IT 

 









Legend :    VFR   Marginal VFR   IFR   Intensive IFR   Very Intensive IFR
Visi :
Ceiling :
>= 8 km
>= 3000ft
5 to 8 km
1000 to 3000 ft
1500m to 5 km
500 to 1000 ft
800 to 1500m
200 to 500 ft
< 800m
< 200 ft
Symbols :   Thunderstorms  Fog  Heavy snow  Heavy precipitations  Wind > 20 kt






- Airport Elevation : 1456 ft


KELO - Ely Municipal

CURRENT METAR :
  • 211635Z AUTO 25005KT 10SM BKN010 OVC013 00/M01 A2997 RMK AO2

EXPIRED METARs :
  • 211615Z AUTO 25007KT 7SM OVC010 M01/M01 A2997 RMK AO2
  • 211555Z AUTO 26004KT 5SM BR BKN007 OVC011 M01/M01 A2996 RMK AO2
  • 211535Z AUTO 25007KT 5SM BR OVC007 M01/M01 A2996 RMK AO2
  • 211515Z AUTO 26006KT 4SM BR OVC005 M01/M01 A2995 RMK AO2
  • 211455Z AUTO 27004KT 7SM OVC005 M01/M01 A2994 RMK AO2
  • 211435Z AUTO 25005KT 10SM OVC007 M01/M01 A2994 RMK AO2
  • 211415Z AUTO 25005KT 5SM BR OVC007 M01/M01 A2994 RMK AO2
  • 211355Z AUTO 25004KT 3SM BR OVC009 M01/M01 A2994 RMK AO2

TAF N/A
KZMP FIR / North America



MET'MAP, your aeronautical weather chart ! - Copyright ORBIFLY December 2007 - Disclaimer

ORBIFLY MET'MAP TEAM :

Programming & Development : Alexandra Zaïnal
Concept & original design : Baudouin d'Aumeries
Assistance for programming : Marc-Olivier Méhu
Technical & hardware support : Manuel Goepfert

Contact : metmap@orbifly.com




SOURCES & CREDITS :

   NOAA       Earth
Advisory